sensor_id;sensor_type;location;lat;lon;timestamp;noise_LAeq;noise_LA_min;noise_LA_max;noise_LA01;noise_LA95
49568;Laerm;35474;51.032;6.998;2023-05-20T00:00:34;58.56;42.65;74.02;;
49568;Laerm;35474;51.032;6.998;2023-05-20T00:03:01;52.32;42.41;62.65;;
49568;Laerm;35474;51.032;6.998;2023-05-20T00:05:28;54.64;42.53;66.97;;
49568;Laerm;35474;51.032;6.998;2023-05-20T00:07:54;54.69;42.35;72.57;;
49568;Laerm;35474;51.032;6.998;2023-05-20T00:10:21;51.91;42.41;67.45;;
49568;Laerm;35474;51.032;6.998;2023-05-20T00:12:48;54.54;42.09;71.70;;
49568;Laerm;35474;51.032;6.998;2023-05-20T00:15:14;58.69;42.29;72.94;;
49568;Laerm;35474;51.032;6.998;2023-05-20T00:17:41;54.48;42.22;68.03;;
49568;Laerm;35474;51.032;6.998;2023-05-20T00:20:08;54.26;43.19;68.85;;
49568;Laerm;35474;51.032;6.998;2023-05-20T00:22:34;45.46;42.47;66.90;;
49568;Laerm;35474;51.032;6.998;2023-05-20T00:25:01;55.11;41.81;67.41;;
49568;Laerm;35474;51.032;6.998;2023-05-20T00:27:28;66.02;43.39;87.33;;
49568;Laerm;35474;51.032;6.998;2023-05-20T00:29:55;53.11;42.09;68.11;;
49568;Laerm;35474;51.032;6.998;2023-05-20T00:32:21;52.00;42.47;66.60;;
49568;Laerm;35474;51.032;6.998;2023-05-20T00:34:58;51.25;42.76;65.01;;
49568;Laerm;35474;51.032;6.998;2023-05-20T00:37:25;56.59;43.54;72.05;;
49568;Laerm;35474;51.032;6.998;2023-05-20T00:39:52;51.76;42.82;66.26;;
49568;Laerm;35474;51.032;6.998;2023-05-20T00:42:26;52.63;42.82;65.39;;
49568;Laerm;35474;51.032;6.998;2023-05-20T00:44:54;55.90;41.75;67.21;;
49568;Laerm;35474;51.032;6.998;2023-05-20T00:47:25;43.94;42.03;50.55;;
49568;Laerm;35474;51.032;6.998;2023-05-20T00:49:52;48.80;41.82;61.79;;
49568;Laerm;35474;51.032;6.998;2023-05-20T00:52:19;45.24;42.22;54.78;;
49568;Laerm;35474;51.032;6.998;2023-05-20T00:54:48;55.43;41.68;67.84;;
49568;Laerm;35474;51.032;6.998;2023-05-20T00:57:15;52.25;41.68;65.70;;
49568;Laerm;35474;51.032;6.998;2023-05-20T00:59:42;55.62;41.89;67.20;;
49568;Laerm;35474;51.032;6.998;2023-05-20T01:02:10;53.20;39.92;69.66;;
49568;Laerm;35474;51.032;6.998;2023-05-20T01:04:37;59.10;40.71;75.31;;
49568;Laerm;35474;51.032;6.998;2023-05-20T01:07:07;55.93;41.14;67.55;;
49568;Laerm;35474;51.032;6.998;2023-05-20T01:09:33;50.69;40.43;62.98;;
49568;Laerm;35474;51.032;6.998;2023-05-20T01:12:15;56.78;41.89;68.63;;
49568;Laerm;35474;51.032;6.998;2023-05-20T01:14:58;57.67;40.98;71.30;;
49568;Laerm;35474;51.032;6.998;2023-05-20T01:17:29;43.31;39.21;45.57;;
49568;Laerm;35474;51.032;6.998;2023-05-20T01:19:59;55.69;42.22;68.77;;
49568;Laerm;35474;51.032;6.998;2023-05-20T01:22:27;43.46;41.61;48.02;;
49568;Laerm;35474;51.032;6.998;2023-05-20T01:24:54;55.95;41.06;67.31;;
49568;Laerm;35474;51.032;6.998;2023-05-20T01:27:22;57.32;40.43;70.58;;
49568;Laerm;35474;51.032;6.998;2023-05-20T01:29:50;51.35;41.06;65.75;;
49568;Laerm;35474;51.032;6.998;2023-05-20T01:32:25;53.14;41.06;66.19;;
49568;Laerm;35474;51.032;6.998;2023-05-20T01:34:54;54.99;41.53;70.17;;
49568;Laerm;35474;51.032;6.998;2023-05-20T01:37:22;57.73;41.61;70.37;;
49568;Laerm;35474;51.032;6.998;2023-05-20T01:39:51;53.71;40.03;65.77;;
49568;Laerm;35474;51.032;6.998;2023-05-20T01:42:19;48.15;40.23;63.47;;
49568;Laerm;35474;51.032;6.998;2023-05-20T01:44:46;51.86;40.33;63.04;;
49568;Laerm;35474;51.032;6.998;2023-05-20T01:47:13;49.73;40.13;66.77;;
49568;Laerm;35474;51.032;6.998;2023-05-20T01:49:39;43.01;39.46;47.77;;
49568;Laerm;35474;51.032;6.998;2023-05-20T01:52:06;55.82;38.37;69.72;;
49568;Laerm;35474;51.032;6.998;2023-05-20T01:54:33;53.63;39.92;67.15;;
49568;Laerm;35474;51.032;6.998;2023-05-20T01:57:00;55.32;40.03;74.44;;
49568;Laerm;35474;51.032;6.998;2023-05-20T01:59:26;55.19;39.46;66.48;;
49568;Laerm;35474;51.032;6.998;2023-05-20T02:01:53;41.97;38.95;49.53;;
49568;Laerm;35474;51.032;6.998;2023-05-20T02:04:20;47.18;39.46;59.68;;
49568;Laerm;35474;51.032;6.998;2023-05-20T02:06:48;52.93;39.46;65.77;;
49568;Laerm;35474;51.032;6.998;2023-05-20T02:09:14;54.61;38.52;69.17;;
49568;Laerm;35474;51.032;6.998;2023-05-20T02:11:41;42.29;38.52;58.28;;
49568;Laerm;35474;51.032;6.998;2023-05-20T02:14:08;56.39;40.03;71.12;;
49568;Laerm;35474;51.032;6.998;2023-05-20T02:16:34;42.75;39.81;53.30;;
49568;Laerm;35474;51.032;6.998;2023-05-20T02:19:01;43.60;40.98;56.18;;
49568;Laerm;35474;51.032;6.998;2023-05-20T02:21:28;43.91;41.82;51.35;;
49568;Laerm;35474;51.032;6.998;2023-05-20T02:23:54;44.49;41.75;52.61;;
49568;Laerm;35474;51.032;6.998;2023-05-20T02:26:21;52.55;40.71;67.96;;
49568;Laerm;35474;51.032;6.998;2023-05-20T02:28:48;51.36;39.46;67.03;;
49568;Laerm;35474;51.032;6.998;2023-05-20T02:31:16;53.70;39.46;70.31;;
49568;Laerm;35474;51.032;6.998;2023-05-20T02:33:44;45.71;41.89;60.68;;
49568;Laerm;35474;51.032;6.998;2023-05-20T02:36:10;44.42;41.14;54.69;;
49568;Laerm;35474;51.032;6.998;2023-05-20T02:38:37;54.93;40.03;68.44;;
49568;Laerm;35474;51.032;6.998;2023-05-20T02:41:04;54.26;41.46;66.71;;
49568;Laerm;35474;51.032;6.998;2023-05-20T02:43:32;57.35;41.06;68.17;;
49568;Laerm;35474;51.032;6.998;2023-05-20T02:45:59;55.29;41.46;68.26;;
49568;Laerm;35474;51.032;6.998;2023-05-20T02:48:25;60.52;42.09;73.22;;
49568;Laerm;35474;51.032;6.998;2023-05-20T02:50:52;59.71;41.53;72.04;;
49568;Laerm;35474;51.032;6.998;2023-05-20T02:53:19;55.05;41.30;69.59;;
49568;Laerm;35474;51.032;6.998;2023-05-20T02:55:46;54.74;40.80;68.19;;
49568;Laerm;35474;51.032;6.998;2023-05-20T02:58:13;50.41;41.22;64.60;;
49568;Laerm;35474;51.032;6.998;2023-05-20T03:00:40;52.19;41.14;64.44;;
49568;Laerm;35474;51.032;6.998;2023-05-20T03:03:07;43.58;40.62;53.80;;
49568;Laerm;35474;51.032;6.998;2023-05-20T03:05:36;53.31;40.03;66.84;;
49568;Laerm;35474;51.032;6.998;2023-05-20T03:08:09;52.45;40.23;69.91;;
49568;Laerm;35474;51.032;6.998;2023-05-20T03:10:39;55.91;40.98;71.95;;
49568;Laerm;35474;51.032;6.998;2023-05-20T03:13:07;58.64;41.46;69.73;;
49568;Laerm;35474;51.032;6.998;2023-05-20T03:15:34;55.83;42.29;67.98;;
49568;Laerm;35474;51.032;6.998;2023-05-20T03:18:02;52.62;42.19;64.99;;
49568;Laerm;35474;51.032;6.998;2023-05-20T03:20:29;53.95;41.96;66.42;;
49568;Laerm;35474;51.032;6.998;2023-05-20T03:22:57;56.71;42.59;66.92;;
49568;Laerm;35474;51.032;6.998;2023-05-20T03:25:24;56.99;42.59;69.14;;
49568;Laerm;35474;51.032;6.998;2023-05-20T03:27:51;50.98;42.59;62.59;;
49568;Laerm;35474;51.032;6.998;2023-05-20T03:30:18;60.85;43.19;70.33;;
49568;Laerm;35474;51.032;6.998;2023-05-20T03:32:45;57.29;42.29;68.38;;
49568;Laerm;35474;51.032;6.998;2023-05-20T03:35:12;58.07;42.79;70.14;;
49568;Laerm;35474;51.032;6.998;2023-05-20T03:37:38;60.12;43.14;70.70;;
49568;Laerm;35474;51.032;6.998;2023-05-20T03:40:06;57.09;43.39;68.35;;
49568;Laerm;35474;51.032;6.998;2023-05-20T03:42:33;59.04;43.09;72.07;;
49568;Laerm;35474;51.032;6.998;2023-05-20T03:45:00;57.97;43.19;70.46;;
49568;Laerm;35474;51.032;6.998;2023-05-20T03:47:27;60.72;42.93;72.52;;
49568;Laerm;35474;51.032;6.998;2023-05-20T03:49:54;57.08;43.81;68.86;;
49568;Laerm;35474;51.032;6.998;2023-05-20T03:52:20;57.16;43.14;68.63;;
49568;Laerm;35474;51.032;6.998;2023-05-20T03:54:47;59.78;43.49;69.38;;
49568;Laerm;35474;51.032;6.998;2023-05-20T03:57:14;56.18;42.59;69.67;;
49568;Laerm;35474;51.032;6.998;2023-05-20T03:59:41;57.82;42.09;69.62;;
49568;Laerm;35474;51.032;6.998;2023-05-20T04:02:08;53.54;43.04;65.76;;
49568;Laerm;35474;51.032;6.998;2023-05-20T04:04:35;55.92;43.04;68.84;;
49568;Laerm;35474;51.032;6.998;2023-05-20T04:07:01;56.97;42.82;71.42;;
49568;Laerm;35474;51.032;6.998;2023-05-20T04:09:30;56.74;42.71;68.08;;
49568;Laerm;35474;51.032;6.998;2023-05-20T04:11:57;59.62;43.09;69.83;;
49568;Laerm;35474;51.032;6.998;2023-05-20T04:14:23;57.37;42.65;69.99;;
49568;Laerm;35474;51.032;6.998;2023-05-20T04:16:50;57.72;42.71;67.36;;
49568;Laerm;35474;51.032;6.998;2023-05-20T04:19:17;59.72;43.80;71.63;;
49568;Laerm;35474;51.032;6.998;2023-05-20T04:21:49;49.87;41.96;64.43;;
49568;Laerm;35474;51.032;6.998;2023-05-20T04:24:16;58.05;42.41;71.63;;
49568;Laerm;35474;51.032;6.998;2023-05-20T04:26:42;53.59;43.14;68.91;;
49568;Laerm;35474;51.032;6.998;2023-05-20T04:29:09;57.20;43.14;71.02;;
49568;Laerm;35474;51.032;6.998;2023-05-20T04:31:37;56.93;42.88;68.64;;
49568;Laerm;35474;51.032;6.998;2023-05-20T04:34:03;59.66;43.44;71.56;;
49568;Laerm;35474;51.032;6.998;2023-05-20T04:36:30;57.63;43.49;72.12;;
49568;Laerm;35474;51.032;6.998;2023-05-20T04:38:57;61.75;43.63;71.28;;
49568;Laerm;35474;51.032;6.998;2023-05-20T04:41:24;61.39;43.72;71.08;;
49568;Laerm;35474;51.032;6.998;2023-05-20T04:43:50;62.19;42.93;76.09;;
49568;Laerm;35474;51.032;6.998;2023-05-20T04:46:17;59.26;42.53;72.04;;
49568;Laerm;35474;51.032;6.998;2023-05-20T04:48:45;62.59;42.65;75.55;;
49568;Laerm;35474;51.032;6.998;2023-05-20T04:51:13;56.02;42.35;67.27;;
49568;Laerm;35474;51.032;6.998;2023-05-20T04:53:39;55.81;42.29;68.98;;
49568;Laerm;35474;51.032;6.998;2023-05-20T04:56:06;58.24;42.35;67.80;;
49568;Laerm;35474;51.032;6.998;2023-05-20T04:58:33;57.85;43.14;68.87;;
49568;Laerm;35474;51.032;6.998;2023-05-20T05:01:00;53.83;42.59;72.82;;
49568;Laerm;35474;51.032;6.998;2023-05-20T05:03:28;61.15;44.15;74.97;;
49568;Laerm;35474;51.032;6.998;2023-05-20T05:05:58;57.24;43.29;67.47;;
49568;Laerm;35474;51.032;6.998;2023-05-20T05:08:25;61.31;44.65;69.74;;
49568;Laerm;35474;51.032;6.998;2023-05-20T05:10:52;45.55;41.82;64.32;;
49568;Laerm;35474;51.032;6.998;2023-05-20T05:13:18;58.97;43.34;70.23;;
49568;Laerm;35474;51.032;6.998;2023-05-20T05:15:45;67.85;42.59;87.37;;
49568;Laerm;35474;51.032;6.998;2023-05-20T05:18:12;60.28;43.19;69.76;;
49568;Laerm;35474;51.032;6.998;2023-05-20T05:20:38;57.82;42.47;67.01;;
49568;Laerm;35474;51.032;6.998;2023-05-20T05:23:05;61.31;42.35;69.25;;
49568;Laerm;35474;51.032;6.998;2023-05-20T05:25:32;60.42;41.96;73.77;;
49568;Laerm;35474;51.032;6.998;2023-05-20T05:27:59;60.62;42.03;72.55;;
49568;Laerm;35474;51.032;6.998;2023-05-20T05:30:26;60.02;45.01;76.49;;
49568;Laerm;35474;51.032;6.998;2023-05-20T05:32:52;57.33;40.71;68.72;;
49568;Laerm;35474;51.032;6.998;2023-05-20T05:35:19;60.08;41.46;70.51;;
49568;Laerm;35474;51.032;6.998;2023-05-20T05:37:46;61.10;43.44;74.59;;
49568;Laerm;35474;51.032;6.998;2023-05-20T05:40:13;63.50;45.07;73.59;;
49568;Laerm;35474;51.032;6.998;2023-05-20T05:42:39;60.99;43.72;70.93;;
49568;Laerm;35474;51.032;6.998;2023-05-20T05:45:06;62.28;45.36;70.30;;
49568;Laerm;35474;51.032;6.998;2023-05-20T05:47:33;58.02;42.71;73.11;;
49568;Laerm;35474;51.032;6.998;2023-05-20T05:50:00;61.58;43.34;71.70;;
49568;Laerm;35474;51.032;6.998;2023-05-20T05:52:26;61.21;43.19;70.92;;
49568;Laerm;35474;51.032;6.998;2023-05-20T05:54:53;58.50;41.46;73.35;;
49568;Laerm;35474;51.032;6.998;2023-05-20T05:57:20;57.55;42.41;66.70;;
49568;Laerm;35474;51.032;6.998;2023-05-20T05:59:47;57.98;42.47;71.02;;
49568;Laerm;35474;51.032;6.998;2023-05-20T06:02:13;60.59;45.89;68.82;;
49568;Laerm;35474;51.032;6.998;2023-05-20T06:04:42;55.73;41.68;65.71;;
49568;Laerm;35474;51.032;6.998;2023-05-20T06:07:08;59.47;42.93;69.87;;
49568;Laerm;35474;51.032;6.998;2023-05-20T06:09:35;59.93;42.22;69.89;;
49568;Laerm;35474;51.032;6.998;2023-05-20T06:12:02;61.65;42.22;73.09;;
49568;Laerm;35474;51.032;6.998;2023-05-20T06:14:28;60.37;42.71;71.09;;
49568;Laerm;35474;51.032;6.998;2023-05-20T06:16:55;61.81;44.07;70.07;;
49568;Laerm;35474;51.032;6.998;2023-05-20T06:19:22;60.15;43.29;73.12;;
49568;Laerm;35474;51.032;6.998;2023-05-20T06:21:50;62.38;42.03;71.02;;
49568;Laerm;35474;51.032;6.998;2023-05-20T06:24:17;64.52;52.47;73.11;;
49568;Laerm;35474;51.032;6.998;2023-05-20T06:26:43;61.33;44.58;70.86;;
49568;Laerm;35474;51.032;6.998;2023-05-20T06:32:34;60.67;45.36;69.53;;
49568;Laerm;35474;51.032;6.998;2023-05-20T06:35:01;61.68;44.07;69.44;;
49568;Laerm;35474;51.032;6.998;2023-05-20T06:37:27;61.80;42.79;76.69;;
49568;Laerm;35474;51.032;6.998;2023-05-20T06:39:54;62.01;44.35;71.94;;
49568;Laerm;35474;51.032;6.998;2023-05-20T06:42:21;62.88;44.07;71.23;;
49568;Laerm;35474;51.032;6.998;2023-05-20T06:44:47;62.50;47.02;71.29;;
49568;Laerm;35474;51.032;6.998;2023-05-20T06:47:15;63.37;46.64;73.09;;
49568;Laerm;35474;51.032;6.998;2023-05-20T06:49:43;63.04;43.58;71.54;;
49568;Laerm;35474;51.032;6.998;2023-05-20T06:52:13;62.09;46.07;73.58;;
49568;Laerm;35474;51.032;6.998;2023-05-20T06:54:39;61.87;46.28;71.43;;
49568;Laerm;35474;51.032;6.998;2023-05-20T06:57:07;62.17;43.77;72.47;;
49568;Laerm;35474;51.032;6.998;2023-05-20T06:59:36;60.35;43.44;69.25;;
49568;Laerm;35474;51.032;6.998;2023-05-20T07:02:03;62.00;43.19;70.47;;
49568;Laerm;35474;51.032;6.998;2023-05-20T07:04:30;62.40;43.44;75.88;;
49568;Laerm;35474;51.032;6.998;2023-05-20T07:06:57;61.41;46.20;73.27;;
49568;Laerm;35474;51.032;6.998;2023-05-20T07:09:23;61.32;44.07;70.48;;
49568;Laerm;35474;51.032;6.998;2023-05-20T07:11:50;64.45;46.82;77.89;;
49568;Laerm;35474;51.032;6.998;2023-05-20T07:14:17;63.84;48.21;71.28;;
49568;Laerm;35474;51.032;6.998;2023-05-20T07:16:43;62.65;49.00;71.80;;
49568;Laerm;35474;51.032;6.998;2023-05-20T07:19:10;63.78;50.01;71.20;;
49568;Laerm;35474;51.032;6.998;2023-05-20T07:21:36;63.19;42.41;71.55;;
49568;Laerm;35474;51.032;6.998;2023-05-20T07:24:03;63.78;46.13;78.38;;
49568;Laerm;35474;51.032;6.998;2023-05-20T07:26:30;62.94;48.85;71.65;;
49568;Laerm;35474;51.032;6.998;2023-05-20T07:28:59;61.87;45.66;71.64;;
49568;Laerm;35474;51.032;6.998;2023-05-20T07:31:25;66.49;45.17;86.19;;
49568;Laerm;35474;51.032;6.998;2023-05-20T07:33:52;64.71;47.93;71.42;;
49568;Laerm;35474;51.032;6.998;2023-05-20T07:36:19;63.25;47.36;74.49;;
49568;Laerm;35474;51.032;6.998;2023-05-20T07:38:45;63.73;47.42;70.22;;
49568;Laerm;35474;51.032;6.998;2023-05-20T07:41:28;63.90;50.26;70.07;;
49568;Laerm;35474;51.032;6.998;2023-05-20T07:43:55;64.05;48.32;79.73;;
49568;Laerm;35474;51.032;6.998;2023-05-20T07:46:22;63.39;46.84;70.12;;
49568;Laerm;35474;51.032;6.998;2023-05-20T07:48:48;63.01;45.14;70.60;;
49568;Laerm;35474;51.032;6.998;2023-05-20T07:51:15;65.17;48.28;73.02;;
49568;Laerm;35474;51.032;6.998;2023-05-20T07:53:42;64.29;43.94;71.64;;
49568;Laerm;35474;51.032;6.998;2023-05-20T07:56:08;64.18;42.53;71.49;;
49568;Laerm;35474;51.032;6.998;2023-05-20T07:58:35;64.90;49.46;73.50;;
49568;Laerm;35474;51.032;6.998;2023-05-20T08:01:02;63.03;46.05;74.24;;
49568;Laerm;35474;51.032;6.998;2023-05-20T08:03:28;61.73;44.51;78.82;;
49568;Laerm;35474;51.032;6.998;2023-05-20T08:05:55;64.18;51.54;71.72;;
49568;Laerm;35474;51.032;6.998;2023-05-20T08:08:22;64.31;48.69;70.80;;
49568;Laerm;35474;51.032;6.998;2023-05-20T08:10:50;63.41;46.25;78.59;;
49568;Laerm;35474;51.032;6.998;2023-05-20T08:13:16;64.90;49.34;78.52;;
49568;Laerm;35474;51.032;6.998;2023-05-20T08:15:43;64.99;51.90;80.53;;
49568;Laerm;35474;51.032;6.998;2023-05-20T08:18:10;67.89;45.51;88.75;;
49568;Laerm;35474;51.032;6.998;2023-05-20T08:20:36;66.82;45.60;86.91;;
49568;Laerm;35474;51.032;6.998;2023-05-20T08:23:03;64.92;47.81;73.73;;
49568;Laerm;35474;51.032;6.998;2023-05-20T08:25:29;63.86;49.24;75.09;;
49568;Laerm;35474;51.032;6.998;2023-05-20T08:27:56;63.58;48.80;70.50;;
49568;Laerm;35474;51.032;6.998;2023-05-20T08:30:23;64.31;45.97;72.69;;
49568;Laerm;35474;51.032;6.998;2023-05-20T08:32:49;65.73;48.57;72.46;;
49568;Laerm;35474;51.032;6.998;2023-05-20T08:35:17;64.86;56.33;73.45;;
49568;Laerm;35474;51.032;6.998;2023-05-20T08:37:43;65.06;47.06;73.89;;
49568;Laerm;35474;51.032;6.998;2023-05-20T08:40:11;62.84;47.48;70.40;;
49568;Laerm;35474;51.032;6.998;2023-05-20T08:42:43;65.21;48.85;80.89;;
49568;Laerm;35474;51.032;6.998;2023-05-20T08:45:11;64.84;53.38;71.90;;
49568;Laerm;35474;51.032;6.998;2023-05-20T08:47:41;64.82;48.61;78.58;;
49568;Laerm;35474;51.032;6.998;2023-05-20T08:50:11;63.98;48.32;71.49;;
49568;Laerm;35474;51.032;6.998;2023-05-20T08:52:45;64.30;47.52;71.71;;
49568;Laerm;35474;51.032;6.998;2023-05-20T08:55:24;65.34;52.20;72.68;;
49568;Laerm;35474;51.032;6.998;2023-05-20T08:57:53;64.70;51.44;72.87;;
49568;Laerm;35474;51.032;6.998;2023-05-20T09:00:21;63.27;48.32;71.50;;
49568;Laerm;35474;51.032;6.998;2023-05-20T09:02:52;64.77;50.50;71.90;;
49568;Laerm;35474;51.032;6.998;2023-05-20T09:05:20;66.62;49.46;76.93;;
49568;Laerm;35474;51.032;6.998;2023-05-20T09:07:48;63.65;44.65;71.98;;
49568;Laerm;35474;51.032;6.998;2023-05-20T09:10:15;64.04;50.94;71.02;;
49568;Laerm;35474;51.032;6.998;2023-05-20T09:12:42;64.86;47.90;72.26;;
49568;Laerm;35474;51.032;6.998;2023-05-20T09:15:08;62.87;45.23;71.69;;
49568;Laerm;35474;51.032;6.998;2023-05-20T09:17:36;64.53;46.84;73.82;;
49568;Laerm;35474;51.032;6.998;2023-05-20T09:20:09;65.12;52.12;70.61;;
49568;Laerm;35474;51.032;6.998;2023-05-20T09:22:38;64.73;44.97;73.82;;
49568;Laerm;35474;51.032;6.998;2023-05-20T09:25:04;63.12;45.07;70.60;;
49568;Laerm;35474;51.032;6.998;2023-05-20T09:27:32;65.21;49.72;77.04;;
49568;Laerm;35474;51.032;6.998;2023-05-20T09:29:59;62.84;46.59;69.50;;
49568;Laerm;35474;51.032;6.998;2023-05-20T09:32:25;64.46;52.10;71.14;;
49568;Laerm;35474;51.032;6.998;2023-05-20T09:34:54;64.97;51.53;71.18;;
49568;Laerm;35474;51.032;6.998;2023-05-20T09:37:21;64.37;45.42;74.05;;
49568;Laerm;35474;51.032;6.998;2023-05-20T09:39:55;64.19;47.70;70.13;;
49568;Laerm;35474;51.032;6.998;2023-05-20T09:42:26;66.26;51.79;82.30;;
49568;Laerm;35474;51.032;6.998;2023-05-20T09:44:54;65.53;50.85;78.67;;
49568;Laerm;35474;51.032;6.998;2023-05-20T09:47:23;65.04;45.01;72.74;;
49568;Laerm;35474;51.032;6.998;2023-05-20T09:49:51;63.23;45.23;73.34;;
49568;Laerm;35474;51.032;6.998;2023-05-20T09:52:19;64.93;46.20;74.62;;
49568;Laerm;35474;51.032;6.998;2023-05-20T09:54:47;65.55;51.12;82.29;;
49568;Laerm;35474;51.032;6.998;2023-05-20T09:57:14;67.42;46.80;82.92;;
49568;Laerm;35474;51.032;6.998;2023-05-20T09:59:42;67.04;52.08;90.78;;
49568;Laerm;35474;51.032;6.998;2023-05-20T10:02:09;64.81;50.52;75.15;;
49568;Laerm;35474;51.032;6.998;2023-05-20T10:04:37;64.16;50.07;70.39;;
49568;Laerm;35474;51.032;6.998;2023-05-20T10:09:59;62.76;51.58;73.96;;
49568;Laerm;35474;51.032;6.998;2023-05-20T10:12:35;64.27;46.25;72.24;;
49568;Laerm;35474;51.032;6.998;2023-05-20T10:21:16;65.27;49.34;71.74;;
49568;Laerm;35474;51.032;6.998;2023-05-20T10:23:43;66.81;46.35;78.57;;
49568;Laerm;35474;51.032;6.998;2023-05-20T10:26:10;64.60;51.07;80.68;;
49568;Laerm;35474;51.032;6.998;2023-05-20T10:28:39;65.08;48.57;76.02;;
49568;Laerm;35474;51.032;6.998;2023-05-20T10:31:20;64.91;48.51;73.27;;
49568;Laerm;35474;51.032;6.998;2023-05-20T10:33:51;65.78;51.12;81.80;;
49568;Laerm;35474;51.032;6.998;2023-05-20T10:36:26;64.44;49.00;71.20;;
49568;Laerm;35474;51.032;6.998;2023-05-20T10:38:58;62.88;44.39;75.11;;
49568;Laerm;35474;51.032;6.998;2023-05-20T10:41:27;65.11;54.66;84.75;;
49568;Laerm;35474;51.032;6.998;2023-05-20T10:44:01;66.19;47.70;75.31;;
49568;Laerm;35474;51.032;6.998;2023-05-20T10:46:29;65.28;50.85;85.08;;
49568;Laerm;35474;51.032;6.998;2023-05-20T10:49:17;64.83;51.26;76.29;;
49568;Laerm;35474;51.032;6.998;2023-05-20T10:51:53;64.62;50.87;79.27;;
49568;Laerm;35474;51.032;6.998;2023-05-20T10:54:20;64.92;49.65;77.16;;
49568;Laerm;35474;51.032;6.998;2023-05-20T10:56:51;67.11;54.51;77.61;;
49568;Laerm;35474;51.032;6.998;2023-05-20T10:59:19;65.91;52.21;71.57;;
49568;Laerm;35474;51.032;6.998;2023-05-20T11:01:47;65.03;50.87;73.16;;
49568;Laerm;35474;51.032;6.998;2023-05-20T11:04:15;64.96;46.69;76.92;;
49568;Laerm;35474;51.032;6.998;2023-05-20T11:06:52;65.23;45.97;76.29;;
49568;Laerm;35474;51.032;6.998;2023-05-20T11:09:19;64.68;46.84;76.45;;
49568;Laerm;35474;51.032;6.998;2023-05-20T11:11:46;69.54;45.01;91.94;;
49568;Laerm;35474;51.032;6.998;2023-05-20T11:14:13;65.65;51.94;78.15;;
49568;Laerm;35474;51.032;6.998;2023-05-20T11:16:40;63.35;44.35;69.89;;
49568;Laerm;35474;51.032;6.998;2023-05-20T11:19:13;74.30;49.51;94.53;;
49568;Laerm;35474;51.032;6.998;2023-05-20T11:21:43;65.24;49.97;73.86;;
49568;Laerm;35474;51.032;6.998;2023-05-20T11:24:11;64.85;46.91;74.86;;
49568;Laerm;35474;51.032;6.998;2023-05-20T11:26:38;64.31;46.05;74.00;;
49568;Laerm;35474;51.032;6.998;2023-05-20T11:29:05;63.54;47.52;75.81;;
49568;Laerm;35474;51.032;6.998;2023-05-20T11:31:33;66.13;52.48;80.03;;
49568;Laerm;35474;51.032;6.998;2023-05-20T11:34:00;63.89;49.71;76.89;;
49568;Laerm;35474;51.032;6.998;2023-05-20T11:36:28;78.39;48.34;99.32;;
49568;Laerm;35474;51.032;6.998;2023-05-20T11:38:58;69.54;45.80;89.31;;
49568;Laerm;35474;51.032;6.998;2023-05-20T11:41:26;64.67;43.77;73.89;;
49568;Laerm;35474;51.032;6.998;2023-05-20T11:43:59;64.72;52.69;75.33;;
49568;Laerm;35474;51.032;6.998;2023-05-20T11:46:26;63.66;49.02;73.33;;
49568;Laerm;35474;51.032;6.998;2023-05-20T11:48:55;66.91;48.26;84.51;;
49568;Laerm;35474;51.032;6.998;2023-05-20T11:51:28;64.94;48.70;81.66;;
49568;Laerm;35474;51.032;6.998;2023-05-20T11:54:02;65.88;53.74;82.18;;
49568;Laerm;35474;51.032;6.998;2023-05-20T11:56:30;64.19;47.18;71.37;;
49568;Laerm;35474;51.032;6.998;2023-05-20T11:58:59;65.11;44.54;78.09;;
49568;Laerm;35474;51.032;6.998;2023-05-20T12:01:29;65.65;55.89;73.38;;
49568;Laerm;35474;51.032;6.998;2023-05-20T12:03:56;65.42;46.45;76.40;;
49568;Laerm;35474;51.032;6.998;2023-05-20T12:06:23;64.56;44.11;71.53;;
49568;Laerm;35474;51.032;6.998;2023-05-20T12:08:50;65.89;51.34;72.74;;
49568;Laerm;35474;51.032;6.998;2023-05-20T12:11:16;65.86;52.79;76.63;;
49568;Laerm;35474;51.032;6.998;2023-05-20T12:13:43;66.42;52.53;74.95;;
49568;Laerm;35474;51.032;6.998;2023-05-20T12:16:10;65.25;52.59;73.90;;
49568;Laerm;35474;51.032;6.998;2023-05-20T12:18:36;63.85;48.76;74.53;;
49568;Laerm;35474;51.032;6.998;2023-05-20T12:21:03;65.68;54.33;72.59;;
49568;Laerm;35474;51.032;6.998;2023-05-20T12:23:30;68.53;47.76;85.91;;
49568;Laerm;35474;51.032;6.998;2023-05-20T12:25:59;65.72;54.03;89.03;;
49568;Laerm;35474;51.032;6.998;2023-05-20T12:28:26;63.85;47.59;73.40;;
49568;Laerm;35474;51.032;6.998;2023-05-20T12:30:53;65.56;49.29;75.97;;
49568;Laerm;35474;51.032;6.998;2023-05-20T12:33:20;65.46;50.41;71.06;;
49568;Laerm;35474;51.032;6.998;2023-05-20T12:35:46;64.33;48.63;73.56;;
49568;Laerm;35474;51.032;6.998;2023-05-20T12:38:22;65.18;54.39;83.80;;
49568;Laerm;35474;51.032;6.998;2023-05-20T12:40:49;65.01;45.60;78.59;;
49568;Laerm;35474;51.032;6.998;2023-05-20T12:43:15;65.34;47.55;73.34;;
49568;Laerm;35474;51.032;6.998;2023-05-20T12:45:42;63.79;45.54;71.60;;
49568;Laerm;35474;51.032;6.998;2023-05-20T12:48:09;64.28;45.57;72.44;;
49568;Laerm;35474;51.032;6.998;2023-05-20T12:50:36;64.38;48.73;74.51;;
49568;Laerm;35474;51.032;6.998;2023-05-20T12:53:03;65.55;53.12;82.12;;
49568;Laerm;35474;51.032;6.998;2023-05-20T12:55:33;65.22;49.74;80.31;;
49568;Laerm;35474;51.032;6.998;2023-05-20T12:58:00;67.74;52.82;85.40;;
49568;Laerm;35474;51.032;6.998;2023-05-20T13:00:26;64.81;48.87;74.01;;
49568;Laerm;35474;51.032;6.998;2023-05-20T13:02:56;64.71;47.44;82.59;;
49568;Laerm;35474;51.032;6.998;2023-05-20T13:05:23;65.35;51.00;80.72;;
49568;Laerm;35474;51.032;6.998;2023-05-20T13:07:50;64.73;47.63;82.57;;
49568;Laerm;35474;51.032;6.998;2023-05-20T13:10:17;66.49;52.99;84.51;;
49568;Laerm;35474;51.032;6.998;2023-05-20T13:12:43;65.89;49.63;79.61;;
49568;Laerm;35474;51.032;6.998;2023-05-20T13:15:12;64.69;47.84;75.56;;
49568;Laerm;35474;51.032;6.998;2023-05-20T13:17:40;64.01;49.75;70.56;;
49568;Laerm;35474;51.032;6.998;2023-05-20T13:20:08;66.81;54.60;82.45;;
49568;Laerm;35474;51.032;6.998;2023-05-20T13:22:36;68.01;49.84;88.03;;
49568;Laerm;35474;51.032;6.998;2023-05-20T13:25:04;69.81;56.48;91.69;;
49568;Laerm;35474;51.032;6.998;2023-05-20T13:27:30;76.30;50.99;96.18;;
49568;Laerm;35474;51.032;6.998;2023-05-20T13:29:57;68.04;50.04;86.63;;
49568;Laerm;35474;51.032;6.998;2023-05-20T13:32:24;64.55;48.76;75.47;;
49568;Laerm;35474;51.032;6.998;2023-05-20T13:34:51;65.40;47.28;77.98;;
49568;Laerm;35474;51.032;6.998;2023-05-20T13:37:17;65.23;53.74;73.91;;
49568;Laerm;35474;51.032;6.998;2023-05-20T13:39:44;62.54;45.01;73.54;;
49568;Laerm;35474;51.032;6.998;2023-05-20T13:42:11;65.07;51.50;85.71;;
49568;Laerm;35474;51.032;6.998;2023-05-20T13:44:37;66.88;54.03;86.12;;
49568;Laerm;35474;51.032;6.998;2023-05-20T13:47:04;66.19;53.17;72.94;;
49568;Laerm;35474;51.032;6.998;2023-05-20T13:49:31;63.40;47.83;71.72;;
49568;Laerm;35474;51.032;6.998;2023-05-20T13:51:58;71.86;48.45;95.75;;
49568;Laerm;35474;51.032;6.998;2023-05-20T13:54:24;63.73;46.87;71.62;;
49568;Laerm;35474;51.032;6.998;2023-05-20T13:56:52;63.59;48.18;71.42;;
49568;Laerm;35474;51.032;6.998;2023-05-20T13:59:18;63.77;50.78;71.56;;